createdAt,value
2023-12-27T00:08:17.013Z,72.15
2023-12-27T00:18:21.268Z,72.33
2023-12-27T00:28:24.342Z,71.87
2023-12-27T00:38:28.760Z,72.13
2023-12-27T00:48:31.752Z,72.48
2023-12-27T00:58:36.135Z,72.66
2023-12-27T01:08:39.471Z,72.32
2023-12-27T01:18:44.616Z,72.52
2023-12-27T01:28:47.436Z,72.76
2023-12-27T01:38:51.519Z,73.11
2023-12-27T01:48:54.470Z,73.25
2023-12-27T01:58:59.613Z,72.99
2023-12-27T02:09:02.815Z,72.35
2023-12-27T02:19:08.239Z,72.35
2023-12-27T02:29:12.642Z,72.47
2023-12-27T02:39:15.526Z,72.46
2023-12-27T02:49:19.740Z,72.78
2023-12-27T02:59:23.128Z,73.40
2023-12-27T03:09:27.368Z,73.44
2023-12-27T03:19:30.250Z,73.76
2023-12-27T03:29:34.415Z,74.79
2023-12-27T03:39:37.879Z,74.51
2023-12-27T03:49:42.076Z,74.64
2023-12-27T03:59:44.830Z,74.67
2023-12-27T04:09:48.900Z,74.87
2023-12-27T04:19:51.670Z,74.72
2023-12-27T04:29:55.801Z,75.02
2023-12-27T04:39:58.846Z,74.90
2023-12-27T04:50:03.127Z,75.17
2023-12-27T05:00:08.505Z,75.29
2023-12-27T05:10:12.791Z,75.31
2023-12-27T05:20:15.709Z,75.20
2023-12-27T05:30:19.896Z,75.35
2023-12-27T05:40:22.680Z,74.82
2023-12-27T05:50:26.890Z,74.94
2023-12-27T06:00:29.644Z,74.89
2023-12-27T06:10:34.308Z,74.75
2023-12-27T06:20:37.449Z,74.68
2023-12-27T06:30:41.688Z,74.77
2023-12-27T06:40:44.518Z,74.29
2023-12-27T06:50:50.123Z,74.71
2023-12-27T07:00:52.935Z,74.54
2023-12-27T07:10:57.183Z,74.43
2023-12-27T07:21:00.279Z,74.20
2023-12-27T07:31:04.667Z,74.01
2023-12-27T07:41:07.640Z,74.00
2023-12-27T07:51:11.748Z,73.91
2023-12-27T08:01:14.959Z,74.24
2023-12-27T08:11:19.058Z,74.21
2023-12-27T08:21:22.533Z,74.16
2023-12-27T08:31:26.682Z,74.01
2023-12-27T08:41:29.445Z,73.87
2023-12-27T08:51:33.572Z,73.96
2023-12-27T09:01:37.056Z,73.93
2023-12-27T09:11:42.722Z,73.71
2023-12-27T09:21:46.223Z,72.82
2023-12-27T09:31:50.664Z,72.62
2023-12-27T09:41:53.658Z,72.86
2023-12-27T09:51:59.457Z,72.63
2023-12-27T10:02:04.325Z,72.73
2023-12-27T10:12:09.760Z,71.85
2023-12-27T10:22:14.728Z,71.40
2023-12-27T10:32:19.479Z,70.58
2023-12-27T10:42:29.302Z,70.53
2023-12-27T10:52:36.280Z,70.93
2023-12-27T11:02:39.405Z,70.61
2023-12-27T11:12:47.742Z,70.21
2023-12-27T11:22:53.975Z,69.14
2023-12-27T11:33:02.168Z,66.12
2023-12-27T11:43:06.372Z,66.69
2023-12-27T11:53:13.984Z,66.41
2023-12-27T12:03:24.369Z,66.32
2023-12-27T12:13:29.022Z,65.54
2023-12-27T12:23:32.004Z,63.58
2023-12-27T12:33:41.967Z,62.46
2023-12-27T12:43:46.791Z,61.13
2023-12-27T12:53:50.908Z,62.05
2023-12-27T13:03:53.798Z,62.75
2023-12-27T13:13:59.946Z,63.27
2023-12-27T13:24:02.772Z,62.66
2023-12-27T13:34:07.472Z,62.64
2023-12-27T13:44:10.403Z,63.25
2023-12-27T13:54:24.320Z,63.75
2023-12-27T14:04:31.693Z,65.00
2023-12-27T14:14:36.267Z,65.00
2023-12-27T14:24:39.301Z,65.40
2023-12-27T14:34:43.545Z,65.48
2023-12-27T14:44:46.345Z,66.22
2023-12-27T14:54:50.880Z,66.24
2023-12-27T15:04:54.529Z,66.18
2023-12-27T15:14:58.962Z,66.85
2023-12-27T15:25:01.717Z,67.18
2023-12-27T15:35:07.312Z,67.52
2023-12-27T15:45:10.859Z,68.18
2023-12-27T15:55:18.513Z,68.18
2023-12-27T16:05:21.869Z,68.28
2023-12-27T16:15:26.121Z,68.37
2023-12-27T16:25:29.078Z,68.58
2023-12-27T16:35:40.139Z,68.55
2023-12-27T16:45:43.142Z,68.81
2023-12-27T16:55:47.877Z,69.12
2023-12-27T17:05:51.315Z,69.04
2023-12-27T17:15:57.270Z,69.43
2023-12-27T17:26:00.075Z,69.46
2023-12-27T17:36:04.634Z,69.77
2023-12-27T17:46:07.526Z,70.12
2023-12-27T17:56:11.639Z,70.31
2023-12-27T18:06:14.428Z,69.91
2023-12-27T18:16:18.608Z,69.75
2023-12-27T18:26:31.557Z,69.75
2023-12-27T18:36:43.127Z,69.94
2023-12-27T18:46:45.932Z,69.69
2023-12-27T18:56:50.169Z,69.62
2023-12-27T19:06:52.956Z,70.31
2023-12-27T19:16:57.272Z,70.64
2023-12-27T19:27:00.266Z,71.45
2023-12-27T19:37:04.484Z,72.04
2023-12-27T19:47:07.344Z,71.67
2023-12-27T19:57:11.552Z,71.74
2023-12-27T20:07:18.020Z,71.70
2023-12-27T20:17:22.357Z,71.73
2023-12-27T20:27:25.244Z,71.19
2023-12-27T20:37:30.147Z,70.91
2023-12-27T20:47:33.143Z,70.86
2023-12-27T20:57:37.600Z,70.84
2023-12-27T21:07:40.381Z,70.78
2023-12-27T21:17:44.521Z,71.35
2023-12-27T21:27:47.329Z,71.48
2023-12-27T21:37:51.442Z,71.55
2023-12-27T21:47:54.278Z,67.96
2023-12-27T21:57:58.688Z,63.05
2023-12-27T22:08:07.292Z,60.36
2023-12-27T22:18:14.692Z,59.16
2023-12-27T22:28:17.532Z,58.86
2023-12-27T22:38:24.033Z,56.92
2023-12-27T22:48:26.996Z,57.12
2023-12-27T22:58:31.140Z,56.34
2023-12-27T23:08:33.948Z,58.39
2023-12-27T23:18:38.127Z,58.27
2023-12-27T23:28:40.940Z,57.12
2023-12-27T23:38:45.061Z,57.47
2023-12-27T23:48:48.543Z,57.09
2023-12-27T23:58:52.711Z,56.48
